createdAt,value
2023-10-29T00:01:05.595Z,21.88
2023-10-29T00:03:35.994Z,22.01
2023-10-29T00:06:04.269Z,21.80
2023-10-29T00:08:32.183Z,21.89
2023-10-29T00:11:00.254Z,21.81
2023-10-29T00:13:28.180Z,21.99
2023-10-29T00:15:56.130Z,21.80
2023-10-29T00:18:24.053Z,21.82
2023-10-29T00:20:53.691Z,21.88
2023-10-29T00:23:21.708Z,21.86
2023-10-29T00:25:49.684Z,21.85
2023-10-29T00:28:17.923Z,21.79
2023-10-29T00:30:45.872Z,21.85
2023-10-29T00:33:13.895Z,21.92
2023-10-29T00:35:41.900Z,21.87
2023-10-29T00:38:11.242Z,21.91
2023-10-29T00:40:40.201Z,21.98
2023-10-29T00:43:08.160Z,22.08
2023-10-29T00:45:38.077Z,22.08
2023-10-29T00:48:06.793Z,22.09
2023-10-29T00:50:34.845Z,22.04
2023-10-29T00:53:03.139Z,21.98
2023-10-29T00:55:33.280Z,22.08
2023-10-29T00:58:01.314Z,22.00
2023-10-29T01:00:29.301Z,22.11
2023-10-29T01:02:57.366Z,22.13
2023-10-29T01:05:25.580Z,22.22
2023-10-29T01:07:54.670Z,22.17
2023-10-29T01:10:22.632Z,21.84
2023-10-29T01:12:53.331Z,22.01
2023-10-29T01:15:21.347Z,22.06
2023-10-29T01:17:49.363Z,21.96
2023-10-29T01:20:17.378Z,21.96
2023-10-29T01:22:45.912Z,21.94
2023-10-29T01:25:14.260Z,21.97
2023-10-29T01:27:42.630Z,21.88
2023-10-29T01:30:13.338Z,21.85
2023-10-29T01:32:41.570Z,21.99
2023-10-29T01:35:10.870Z,21.91
2023-10-29T01:37:38.851Z,21.97
2023-10-29T01:40:08.202Z,22.03
2023-10-29T01:42:36.119Z,22.01
2023-10-29T01:45:05.172Z,22.15
2023-10-29T01:47:34.560Z,22.13
2023-10-29T01:50:02.586Z,21.98
2023-10-29T01:52:30.475Z,21.99
2023-10-29T01:54:59.697Z,22.18
2023-10-29T01:57:27.580Z,22.22
2023-10-29T01:59:55.635Z,22.07
2023-10-29T02:02:23.672Z,22.24
2023-10-29T02:04:53.731Z,22.11
2023-10-29T02:07:21.611Z,22.24
2023-10-29T02:09:49.842Z,22.13
2023-10-29T02:12:17.849Z,22.27
2023-10-29T02:14:45.903Z,22.14
2023-10-29T02:17:13.959Z,22.02
2023-10-29T02:19:42.132Z,22.01
2023-10-29T02:22:11.397Z,22.09
2023-10-29T02:24:39.308Z,22.03
2023-10-29T02:27:07.589Z,21.89
2023-10-29T02:29:35.715Z,21.89
2023-10-29T02:32:04.115Z,22.04
2023-10-29T02:34:32.820Z,22.08
2023-10-29T02:37:00.727Z,22.06
2023-10-29T02:39:29.983Z,21.84
2023-10-29T02:41:58.100Z,21.95
2023-10-29T02:44:26.181Z,22.21
2023-10-29T02:46:54.202Z,21.99
2023-10-29T02:49:22.078Z,22.17
2023-10-29T02:51:50.085Z,22.07
2023-10-29T02:54:18.012Z,22.13
2023-10-29T02:56:47.326Z,22.26
2023-10-29T02:59:15.339Z,22.09
2023-10-29T03:01:43.306Z,22.11
2023-10-29T03:04:11.618Z,22.22
2023-10-29T03:06:40.539Z,22.17
2023-10-29T03:09:08.518Z,22.19
2023-10-29T03:11:36.472Z,22.20
2023-10-29T03:14:05.913Z,22.13
2023-10-29T03:16:33.832Z,22.10
2023-10-29T03:19:01.790Z,22.33
2023-10-29T03:21:29.701Z,22.22
2023-10-29T03:23:58.369Z,22.08
2023-10-29T03:26:26.355Z,22.25
2023-10-29T03:28:54.310Z,22.15
2023-10-29T03:31:24.840Z,22.15
2023-10-29T03:33:52.947Z,22.22
2023-10-29T03:36:20.905Z,22.23
2023-10-29T03:38:50.075Z,22.24
2023-10-29T03:41:22.591Z,22.05
2023-10-29T03:43:50.814Z,22.27
2023-10-29T03:46:18.791Z,22.18
2023-10-29T03:48:48.103Z,22.18
2023-10-29T03:51:17.485Z,22.37
2023-10-29T03:53:46.030Z,22.24
2023-10-29T03:56:13.954Z,22.27
2023-10-29T03:58:41.983Z,22.32
2023-10-29T04:01:09.946Z,22.41
2023-10-29T04:03:38.448Z,22.50
2023-10-29T04:06:11.825Z,22.41
2023-10-29T04:08:40.280Z,22.34
2023-10-29T04:11:08.304Z,22.36
2023-10-29T04:13:36.435Z,22.44
2023-10-29T04:16:04.775Z,22.42
2023-10-29T04:18:33.156Z,22.50
2023-10-29T04:21:03.796Z,22.41
2023-10-29T04:23:33.092Z,22.49
2023-10-29T04:26:01.134Z,22.30
2023-10-29T04:28:29.032Z,22.52
2023-10-29T04:30:57.360Z,22.47
2023-10-29T04:33:25.567Z,22.44
2023-10-29T04:35:53.626Z,22.46
2023-10-29T04:38:21.556Z,22.44
2023-10-29T04:40:52.022Z,22.44
2023-10-29T04:43:20.074Z,22.39
2023-10-29T04:45:48.075Z,22.58
2023-10-29T04:48:17.492Z,22.31
2023-10-29T04:50:45.741Z,22.33
2023-10-29T04:53:13.750Z,22.29
2023-10-29T04:55:41.689Z,22.41
2023-10-29T04:58:11.011Z,22.24
2023-10-29T05:00:38.900Z,22.39
2023-10-29T05:03:06.868Z,22.53
2023-10-29T05:05:34.836Z,22.37
2023-10-29T05:08:02.883Z,22.38
2023-10-29T05:10:30.803Z,22.51
2023-10-29T05:12:58.742Z,22.48
2023-10-29T05:15:28.745Z,22.39
2023-10-29T05:17:56.730Z,22.58
2023-10-29T05:20:24.667Z,22.28
2023-10-29T05:22:52.663Z,22.42
2023-10-29T05:25:20.564Z,22.38
2023-10-29T05:27:52.441Z,22.51
2023-10-29T05:30:20.569Z,22.43
2023-10-29T05:32:50.112Z,22.40
2023-10-29T05:35:18.400Z,22.62
2023-10-29T05:37:46.339Z,22.50
2023-10-29T05:40:14.450Z,22.29
2023-10-29T05:42:42.470Z,22.48
2023-10-29T05:45:11.494Z,22.41
2023-10-29T05:47:39.564Z,22.35
2023-10-29T05:50:10.037Z,22.47
2023-10-29T05:52:38.116Z,22.28
2023-10-29T05:55:07.009Z,22.37
2023-10-29T05:57:34.936Z,22.37
2023-10-29T06:00:02.992Z,22.35
2023-10-29T06:02:40.108Z,22.37
2023-10-29T06:05:09.982Z,22.48
2023-10-29T06:07:38.410Z,22.44
2023-10-29T06:10:07.493Z,22.54
2023-10-29T06:12:36.828Z,22.50
2023-10-29T06:15:05.662Z,22.45
2023-10-29T06:17:33.896Z,22.35
2023-10-29T06:20:01.949Z,22.42
2023-10-29T06:22:31.295Z,22.35
2023-10-29T06:24:59.244Z,22.33
2023-10-29T06:27:27.154Z,22.38
2023-10-29T06:29:55.199Z,22.34
2023-10-29T06:32:23.322Z,22.37
2023-10-29T06:34:51.210Z,22.44
2023-10-29T06:37:19.148Z,22.46
2023-10-29T06:39:48.454Z,22.25
2023-10-29T06:42:16.402Z,22.29
2023-10-29T06:44:44.365Z,22.24
2023-10-29T06:47:12.334Z,22.28
2023-10-29T06:49:40.267Z,22.46
2023-10-29T06:52:08.497Z,22.30
2023-10-29T06:54:36.511Z,22.31
2023-10-29T06:57:06.633Z,22.16
2023-10-29T06:59:35.175Z,22.18
2023-10-29T07:02:03.119Z,22.09
2023-10-29T07:04:31.355Z,22.32
2023-10-29T07:06:59.332Z,22.27
2023-10-29T07:09:27.266Z,22.20
2023-10-29T07:11:56.828Z,22.15
2023-10-29T07:14:26.757Z,22.17
2023-10-29T07:16:54.749Z,22.13
2023-10-29T07:19:22.782Z,22.30
2023-10-29T07:21:50.884Z,22.21
2023-10-29T07:24:18.833Z,22.15
2023-10-29T07:26:46.775Z,22.16
2023-10-29T07:29:15.265Z,22.20
2023-10-29T07:31:44.896Z,22.13
2023-10-29T07:34:12.894Z,22.21
2023-10-29T07:36:40.819Z,22.14
2023-10-29T07:39:08.883Z,22.15
2023-10-29T07:41:36.990Z,22.15
2023-10-29T07:44:05.184Z,22.29
2023-10-29T07:46:33.511Z,22.13
2023-10-29T07:49:04.000Z,22.06
2023-10-29T07:51:31.926Z,22.20
2023-10-29T07:54:01.128Z,22.01
2023-10-29T07:56:29.608Z,22.03
2023-10-29T07:58:57.548Z,22.24
2023-10-29T08:01:25.577Z,22.23
2023-10-29T08:03:57.022Z,22.28
2023-10-29T08:06:26.474Z,22.27
2023-10-29T08:08:54.520Z,22.20
2023-10-29T08:11:22.994Z,22.28
2023-10-29T08:13:52.008Z,22.18
2023-10-29T08:16:20.985Z,22.19
2023-10-29T08:18:48.955Z,22.17
2023-10-29T08:21:18.618Z,22.19
2023-10-29T08:23:48.643Z,22.14
2023-10-29T08:26:17.458Z,22.24
2023-10-29T08:28:46.111Z,22.19
2023-10-29T08:31:14.115Z,22.17
2023-10-29T08:33:42.102Z,22.29
2023-10-29T08:36:10.661Z,22.20
2023-10-29T08:38:38.724Z,22.22
2023-10-29T08:41:15.877Z,22.33
2023-10-29T08:43:44.006Z,22.36
2023-10-29T08:46:12.133Z,22.12
2023-10-29T08:48:41.800Z,22.41
2023-10-29T08:51:10.130Z,22.36
2023-10-29T08:53:38.223Z,22.29
2023-10-29T08:56:06.950Z,22.36
2023-10-29T08:58:36.440Z,22.29
2023-10-29T09:01:08.493Z,22.34
2023-10-29T09:03:36.622Z,22.36
2023-10-29T09:06:05.567Z,22.35
2023-10-29T09:08:34.697Z,22.36
2023-10-29T09:11:02.613Z,22.48
2023-10-29T09:13:31.232Z,22.37
2023-10-29T09:16:00.906Z,22.56
2023-10-29T09:18:30.151Z,22.44
2023-10-29T09:20:58.303Z,22.44
2023-10-29T09:23:28.374Z,22.47
2023-10-29T09:25:56.310Z,22.53
2023-10-29T09:28:24.275Z,22.52
2023-10-29T09:30:53.087Z,22.44
2023-10-29T09:33:22.642Z,22.45
2023-10-29T09:35:50.662Z,22.31
2023-10-29T09:38:21.370Z,22.51
2023-10-29T09:40:55.055Z,22.42
2023-10-29T09:43:28.297Z,22.51
2023-10-29T09:45:58.477Z,22.44
2023-10-29T09:48:28.055Z,22.46
2023-10-29T09:50:56.432Z,22.56
2023-10-29T09:53:26.111Z,22.31
2023-10-29T09:55:56.483Z,22.51
2023-10-29T09:58:25.966Z,22.36
2023-10-29T10:00:54.125Z,22.55
2023-10-29T10:03:22.911Z,22.47
2023-10-29T10:05:53.460Z,22.59
2023-10-29T10:08:25.842Z,22.38
2023-10-29T10:10:54.152Z,22.46
2023-10-29T10:13:37.795Z,22.42
2023-10-29T10:16:10.260Z,22.35
2023-10-29T10:18:55.030Z,22.44
2023-10-29T10:21:25.744Z,22.37
2023-10-29T10:23:56.283Z,22.49
2023-10-29T10:26:31.258Z,22.52
2023-10-29T10:29:00.776Z,22.55
2023-10-29T10:31:30.315Z,22.77
2023-10-29T10:34:12.457Z,22.61
2023-10-29T10:36:42.984Z,22.72
2023-10-29T10:39:12.221Z,22.49
2023-10-29T10:41:43.362Z,22.39
2023-10-29T10:44:13.140Z,22.35
2023-10-29T10:46:47.606Z,22.46
2023-10-29T10:49:16.700Z,22.55
2023-10-29T10:51:48.612Z,22.51
2023-10-29T10:54:19.946Z,22.40
2023-10-29T10:56:49.157Z,22.24
2023-10-29T10:59:17.596Z,22.30
2023-10-29T11:01:45.994Z,22.12
2023-10-29T11:04:14.471Z,22.28
2023-10-29T11:06:43.956Z,22.30
2023-10-29T11:09:14.599Z,22.07
2023-10-29T11:11:48.159Z,22.06
2023-10-29T11:14:17.334Z,21.91
2023-10-29T11:16:52.611Z,22.04
2023-10-29T11:19:43.729Z,21.96
2023-10-29T11:22:19.422Z,21.80
2023-10-29T11:25:29.584Z,21.97
2023-10-29T11:27:57.516Z,21.80
2023-10-29T11:30:28.751Z,21.82
2023-10-29T11:33:19.955Z,22.06
2023-10-29T11:35:48.465Z,22.42
2023-10-29T11:38:40.355Z,22.27
2023-10-29T11:41:34.882Z,22.40
2023-10-29T11:44:24.278Z,22.31
2023-10-29T11:47:06.068Z,22.27
2023-10-29T11:50:14.464Z,22.28
2023-10-29T11:52:45.753Z,21.99
2023-10-29T11:55:14.383Z,22.13
2023-10-29T11:57:47.484Z,22.25
2023-10-29T12:00:16.669Z,22.22
2023-10-29T12:02:47.582Z,22.21
2023-10-29T12:05:17.454Z,22.17
2023-10-29T12:07:45.748Z,22.05
2023-10-29T12:10:13.691Z,21.75
2023-10-29T12:12:42.743Z,21.99
2023-10-29T12:15:17.799Z,22.08
2023-10-29T12:17:47.220Z,21.86
2023-10-29T12:20:23.320Z,21.81
2023-10-29T12:22:56.047Z,21.94
2023-10-29T12:25:24.794Z,21.76
2023-10-29T12:27:53.370Z,21.64
2023-10-29T12:30:42.711Z,21.86
2023-10-29T12:33:21.666Z,22.14
2023-10-29T12:35:51.567Z,22.39
2023-10-29T12:38:20.631Z,22.82
2023-10-29T12:41:05.937Z,22.81
2023-10-29T12:43:37.485Z,23.15
2023-10-29T12:46:08.309Z,23.19
2023-10-29T12:48:37.649Z,23.39
2023-10-29T12:51:05.937Z,23.45
2023-10-29T12:53:34.176Z,24.20
2023-10-29T12:56:03.141Z,25.29
2023-10-29T12:58:31.656Z,26.27
2023-10-29T13:01:01.129Z,26.32
2023-10-29T13:03:31.361Z,26.64
2023-10-29T13:05:59.796Z,26.38
2023-10-29T13:08:27.807Z,26.08
2023-10-29T13:10:56.678Z,25.90
2023-10-29T13:13:25.376Z,25.57
2023-10-29T13:15:53.877Z,25.30
2023-10-29T13:18:21.923Z,24.88
2023-10-29T13:20:51.399Z,25.06
2023-10-29T13:23:19.323Z,24.96
2023-10-29T13:25:47.320Z,24.70
2023-10-29T13:28:15.422Z,24.43
2023-10-29T13:30:43.689Z,24.34
2023-10-29T13:33:11.736Z,23.89
2023-10-29T13:35:41.124Z,23.78
2023-10-29T13:38:10.522Z,23.65
2023-10-29T13:40:39.538Z,23.53
2023-10-29T13:43:07.620Z,23.49
2023-10-29T13:45:35.547Z,23.58
2023-10-29T13:48:05.624Z,23.36
2023-10-29T13:50:33.730Z,23.35
2023-10-29T13:53:01.753Z,23.19
2023-10-29T13:55:31.263Z,23.09
2023-10-29T13:58:00.150Z,23.01
2023-10-29T14:00:28.304Z,23.03
2023-10-29T14:02:58.281Z,23.02
2023-10-29T14:05:26.701Z,25.36
2023-10-29T14:07:55.445Z,26.32
2023-10-29T14:10:23.666Z,26.29
2023-10-29T14:12:53.104Z,26.07
2023-10-29T14:15:21.077Z,25.72
2023-10-29T14:17:49.062Z,25.43
2023-10-29T14:20:17.124Z,25.18
2023-10-29T14:22:47.041Z,25.01
2023-10-29T14:25:15.114Z,24.84
2023-10-29T14:27:42.979Z,24.70
2023-10-29T14:30:13.480Z,24.55
2023-10-29T14:32:41.736Z,24.33
2023-10-29T14:35:09.972Z,24.24
2023-10-29T14:37:38.154Z,24.13
2023-10-29T14:40:08.240Z,24.06
2023-10-29T14:42:36.158Z,24.05
2023-10-29T14:45:04.724Z,23.66
2023-10-29T14:47:33.990Z,23.60
2023-10-29T14:50:01.934Z,23.56
2023-10-29T14:52:29.819Z,23.31
2023-10-29T14:54:58.008Z,23.55
2023-10-29T14:57:29.955Z,23.37
2023-10-29T14:59:58.654Z,23.40
2023-10-29T15:02:26.684Z,23.07
2023-10-29T15:04:56.899Z,23.15
2023-10-29T15:07:25.116Z,23.15
2023-10-29T15:09:53.119Z,23.11
2023-10-29T15:12:21.150Z,23.16
2023-10-29T15:14:49.635Z,23.15
2023-10-29T15:17:19.232Z,23.31
2023-10-29T15:19:52.630Z,23.05
2023-10-29T15:22:22.386Z,22.96
2023-10-29T15:24:50.706Z,22.97
2023-10-29T15:27:19.145Z,23.05
2023-10-29T15:29:48.247Z,23.17
2023-10-29T15:32:16.227Z,23.04
2023-10-29T15:34:44.425Z,23.05
2023-10-29T15:37:13.051Z,22.97
2023-10-29T15:39:44.443Z,22.89
2023-10-29T15:42:12.485Z,22.85
2023-10-29T15:44:40.413Z,22.77
2023-10-29T15:47:08.375Z,22.85
2023-10-29T15:49:36.240Z,22.80
2023-10-29T15:52:05.607Z,22.66
2023-10-29T15:54:34.186Z,22.67
2023-10-29T15:57:03.487Z,22.57
2023-10-29T15:59:31.497Z,22.58
2023-10-29T16:01:59.410Z,22.34
2023-10-29T16:04:27.542Z,22.46
2023-10-29T16:06:55.726Z,22.58
2023-10-29T16:09:23.924Z,22.44
2023-10-29T16:11:52.198Z,22.33
2023-10-29T16:14:21.505Z,22.37
2023-10-29T16:16:49.596Z,22.45
2023-10-29T16:19:17.524Z,22.32
2023-10-29T16:21:46.752Z,22.38
2023-10-29T16:24:14.885Z,22.43
2023-10-29T16:26:43.022Z,22.39
2023-10-29T16:29:13.066Z,22.44
2023-10-29T16:31:42.422Z,22.31
2023-10-29T16:34:10.424Z,22.35
2023-10-29T16:36:38.563Z,22.27
2023-10-29T16:39:06.807Z,22.13
2023-10-29T16:41:34.887Z,22.49
2023-10-29T16:44:03.937Z,22.63
2023-10-29T16:46:32.991Z,22.32
2023-10-29T16:49:03.339Z,22.34
2023-10-29T16:51:31.804Z,22.41
2023-10-29T16:53:59.910Z,22.39
2023-10-29T16:56:27.906Z,22.40
2023-10-29T16:58:55.908Z,22.25
2023-10-29T17:01:23.940Z,22.36
2023-10-29T17:03:53.552Z,22.27
2023-10-29T17:06:23.092Z,22.30
2023-10-29T17:08:51.668Z,22.29
2023-10-29T17:11:19.599Z,22.24
2023-10-29T17:13:47.568Z,22.19
2023-10-29T17:16:15.523Z,22.02
2023-10-29T17:18:43.629Z,22.16
2023-10-29T17:21:15.491Z,22.02
2023-10-29T17:23:45.457Z,22.13
2023-10-29T17:26:16.640Z,22.05
2023-10-29T17:28:44.695Z,22.12
2023-10-29T17:31:14.048Z,22.02
2023-10-29T17:33:42.602Z,21.98
2023-10-29T17:36:11.560Z,21.92
2023-10-29T17:38:39.861Z,22.01
2023-10-29T17:41:17.295Z,21.89
2023-10-29T17:43:46.458Z,22.17
2023-10-29T17:46:14.991Z,22.05
2023-10-29T17:48:43.033Z,22.12
2023-10-29T17:51:11.069Z,21.98
2023-10-29T17:53:41.481Z,22.02
2023-10-29T17:56:10.121Z,22.10
2023-10-29T17:58:39.729Z,22.01
2023-10-29T18:01:07.917Z,21.93
2023-10-29T18:03:35.959Z,21.95
2023-10-29T18:06:15.535Z,22.00
2023-10-29T18:08:44.502Z,21.95
2023-10-29T18:11:13.969Z,21.99
2023-10-29T18:13:43.747Z,22.00
2023-10-29T18:16:11.848Z,22.02
2023-10-29T18:18:39.934Z,21.94
2023-10-29T18:21:07.925Z,21.91
2023-10-29T18:23:35.908Z,22.04
2023-10-29T18:26:04.213Z,21.87
2023-10-29T18:28:32.714Z,21.99
2023-10-29T18:31:08.100Z,21.76
2023-10-29T18:33:36.350Z,21.80
2023-10-29T18:36:11.737Z,21.67
2023-10-29T18:38:39.916Z,21.84
2023-10-29T18:41:13.739Z,22.06
2023-10-29T18:43:41.738Z,22.09
2023-10-29T18:46:12.153Z,21.89
2023-10-29T18:48:40.219Z,22.09
2023-10-29T18:51:08.343Z,22.07
2023-10-29T18:53:36.350Z,22.07
2023-10-29T18:56:04.604Z,22.12
2023-10-29T18:58:32.612Z,22.12
2023-10-29T19:01:09.325Z,22.05
2023-10-29T19:03:39.923Z,22.07
2023-10-29T19:06:09.046Z,22.13
2023-10-29T19:08:38.024Z,21.96
2023-10-29T19:11:06.683Z,22.06
2023-10-29T19:13:34.890Z,22.05
2023-10-29T19:16:05.020Z,21.95
2023-10-29T19:18:33.967Z,21.96
2023-10-29T19:21:03.397Z,22.04
2023-10-29T19:23:32.790Z,21.82
2023-10-29T19:26:03.297Z,22.18
2023-10-29T19:28:31.325Z,22.27
2023-10-29T19:31:16.262Z,21.98
2023-10-29T19:33:47.445Z,22.13
2023-10-29T19:36:17.117Z,22.06
2023-10-29T19:38:45.420Z,22.12
2023-10-29T19:41:13.344Z,22.05
2023-10-29T19:43:41.396Z,22.17
2023-10-29T19:46:09.318Z,22.17
2023-10-29T19:48:38.052Z,22.19
2023-10-29T19:51:07.766Z,22.47
2023-10-29T19:53:38.075Z,23.23
2023-10-29T19:56:07.924Z,24.33
2023-10-29T19:58:36.363Z,25.42
2023-10-29T20:01:05.669Z,26.87
2023-10-29T20:03:34.258Z,27.60
2023-10-29T20:06:08.207Z,27.46
2023-10-29T20:08:38.401Z,27.46
2023-10-29T20:11:10.210Z,27.12
2023-10-29T20:13:38.573Z,26.84
2023-10-29T20:16:07.142Z,26.76
2023-10-29T20:18:36.038Z,26.62
2023-10-29T20:21:04.601Z,26.61
2023-10-29T20:23:32.539Z,26.37
2023-10-29T20:26:04.333Z,26.29
2023-10-29T20:28:32.630Z,26.40
2023-10-29T20:31:00.555Z,26.02
2023-10-29T20:33:28.604Z,26.08
2023-10-29T20:35:56.758Z,26.09
2023-10-29T20:38:24.867Z,26.00
2023-10-29T20:40:52.773Z,25.95
2023-10-29T20:43:22.141Z,25.66
2023-10-29T20:45:52.665Z,25.78
2023-10-29T20:48:20.848Z,25.77
2023-10-29T20:50:52.652Z,25.33
2023-10-29T20:53:20.817Z,25.60
2023-10-29T20:55:49.148Z,25.25
2023-10-29T20:58:17.082Z,25.13
2023-10-29T21:00:50.982Z,25.20
2023-10-29T21:03:19.584Z,25.34
2023-10-29T21:05:47.792Z,25.01
2023-10-29T21:08:15.972Z,25.01
2023-10-29T21:10:43.943Z,24.99
2023-10-29T21:13:11.956Z,25.05
2023-10-29T21:15:41.544Z,24.82
2023-10-29T21:18:10.990Z,24.72
2023-10-29T21:20:38.902Z,24.73
2023-10-29T21:23:08.034Z,24.68
2023-10-29T21:25:38.648Z,24.55
2023-10-29T21:28:06.913Z,24.67
2023-10-29T21:30:37.640Z,24.45
2023-10-29T21:33:05.886Z,24.45
2023-10-29T21:35:36.928Z,24.61
2023-10-29T21:38:04.955Z,24.24
2023-10-29T21:40:34.456Z,24.40
2023-10-29T21:43:02.425Z,24.32
2023-10-29T21:45:30.354Z,24.25
2023-10-29T21:47:58.374Z,24.09
2023-10-29T21:50:26.387Z,24.13
2023-10-29T21:52:55.678Z,24.20
2023-10-29T21:55:23.546Z,24.26
2023-10-29T21:57:51.567Z,23.99
2023-10-29T22:00:19.841Z,23.93
2023-10-29T22:02:47.887Z,24.11
2023-10-29T22:05:15.976Z,23.92
2023-10-29T22:07:43.848Z,24.01
2023-10-29T22:10:13.247Z,23.94
2023-10-29T22:12:41.154Z,24.09
2023-10-29T22:15:09.861Z,24.08
2023-10-29T22:17:37.783Z,24.28
2023-10-29T22:20:06.765Z,24.10
2023-10-29T22:22:34.668Z,24.11
2023-10-29T22:25:02.720Z,24.28
2023-10-29T22:27:32.190Z,24.32
2023-10-29T22:30:00.255Z,24.22
2023-10-29T22:32:28.844Z,24.09
2023-10-29T22:34:56.988Z,23.90
2023-10-29T22:37:24.852Z,23.84
2023-10-29T22:39:52.840Z,23.77
2023-10-29T22:42:20.772Z,23.75
2023-10-29T22:44:50.136Z,23.90
2023-10-29T22:47:18.162Z,23.67
2023-10-29T22:49:46.099Z,23.69
2023-10-29T22:52:15.139Z,23.67
2023-10-29T22:54:43.070Z,23.48
2023-10-29T22:57:11.149Z,23.56
2023-10-29T22:59:39.045Z,23.32
2023-10-29T23:02:08.444Z,23.35
2023-10-29T23:04:36.451Z,23.28
2023-10-29T23:07:05.795Z,23.24
2023-10-29T23:09:34.794Z,23.35
2023-10-29T23:12:02.885Z,23.35
2023-10-29T23:14:31.184Z,23.29
2023-10-29T23:16:59.157Z,23.33
2023-10-29T23:19:28.450Z,23.34
2023-10-29T23:21:56.416Z,23.33
2023-10-29T23:24:24.371Z,23.38
2023-10-29T23:26:52.257Z,23.42
2023-10-29T23:29:20.720Z,23.36
2023-10-29T23:31:48.815Z,23.38
2023-10-29T23:34:16.902Z,23.26
2023-10-29T23:36:46.119Z,23.41
2023-10-29T23:39:14.162Z,23.37
2023-10-29T23:41:42.209Z,23.28
2023-10-29T23:44:10.129Z,23.20
2023-10-29T23:46:38.190Z,23.19
2023-10-29T23:49:08.017Z,23.38
2023-10-29T23:51:36.034Z,23.12
2023-10-29T23:54:05.713Z,23.29
2023-10-29T23:56:33.794Z,23.44
2023-10-29T23:59:01.731Z,23.13
